sensor_id;sensor_type;location;lat;lon;timestamp;temperature;humidity
21734;DHT22;11029;47.820;10.534;2023-05-10T00:01:35;11.30;86.40
21734;DHT22;11029;47.820;10.534;2023-05-10T00:04:02;11.30;86.80
21734;DHT22;11029;47.820;10.534;2023-05-10T00:06:29;11.40;86.50
21734;DHT22;11029;47.820;10.534;2023-05-10T00:08:56;11.30;86.60
21734;DHT22;11029;47.820;10.534;2023-05-10T00:11:23;11.30;87.00
21734;DHT22;11029;47.820;10.534;2023-05-10T00:13:50;11.30;86.80
21734;DHT22;11029;47.820;10.534;2023-05-10T00:16:17;11.30;86.50
21734;DHT22;11029;47.820;10.534;2023-05-10T00:18:43;11.30;86.80
21734;DHT22;11029;47.820;10.534;2023-05-10T00:21:10;11.30;86.20
21734;DHT22;11029;47.820;10.534;2023-05-10T00:23:37;11.30;86.60
21734;DHT22;11029;47.820;10.534;2023-05-10T00:26:04;11.30;86.80
21734;DHT22;11029;47.820;10.534;2023-05-10T00:28:30;11.30;86.70
21734;DHT22;11029;47.820;10.534;2023-05-10T00:30:57;11.30;87.00
21734;DHT22;11029;47.820;10.534;2023-05-10T00:33:24;11.30;87.00
21734;DHT22;11029;47.820;10.534;2023-05-10T00:35:51;11.30;87.00
21734;DHT22;11029;47.820;10.534;2023-05-10T00:38:17;11.40;87.00
21734;DHT22;11029;47.820;10.534;2023-05-10T00:40:44;11.40;86.80
21734;DHT22;11029;47.820;10.534;2023-05-10T00:43:18;11.40;86.60
21734;DHT22;11029;47.820;10.534;2023-05-10T00:45:46;11.30;86.80
21734;DHT22;11029;47.820;10.534;2023-05-10T00:48:13;11.40;86.50
21734;DHT22;11029;47.820;10.534;2023-05-10T00:50:40;11.40;86.60
21734;DHT22;11029;47.820;10.534;2023-05-10T00:53:07;11.40;86.40
21734;DHT22;11029;47.820;10.534;2023-05-10T00:55:34;11.40;86.70
21734;DHT22;11029;47.820;10.534;2023-05-10T00:58:01;11.40;86.80
21734;DHT22;11029;47.820;10.534;2023-05-10T01:00:28;11.30;86.10
21734;DHT22;11029;47.820;10.534;2023-05-10T01:02:56;11.20;86.90
21734;DHT22;11029;47.820;10.534;2023-05-10T01:05:23;11.10;87.10
21734;DHT22;11029;47.820;10.534;2023-05-10T01:07:49;11.20;87.30
21734;DHT22;11029;47.820;10.534;2023-05-10T01:10:16;11.10;86.90
21734;DHT22;11029;47.820;10.534;2023-05-10T01:12:45;11.10;87.60
21734;DHT22;11029;47.820;10.534;2023-05-10T01:15:14;11.10;87.40
21734;DHT22;11029;47.820;10.534;2023-05-10T01:17:45;11.10;87.30
21734;DHT22;11029;47.820;10.534;2023-05-10T01:20:13;11.00;87.80
21734;DHT22;11029;47.820;10.534;2023-05-10T01:23:00;11.10;88.10
21734;DHT22;11029;47.820;10.534;2023-05-10T01:33:41;11.00;88.00
21734;DHT22;11029;47.820;10.534;2023-05-10T01:36:38;11.00;88.40
21734;DHT22;11029;47.820;10.534;2023-05-10T01:39:19;11.00;88.30
21734;DHT22;11029;47.820;10.534;2023-05-10T01:41:55;10.90;88.50
21734;DHT22;11029;47.820;10.534;2023-05-10T01:47:09;10.90;87.20
21734;DHT22;11029;47.820;10.534;2023-05-10T01:49:50;10.80;86.70
21734;DHT22;11029;47.820;10.534;2023-05-10T01:52:20;10.80;86.80
21734;DHT22;11029;47.820;10.534;2023-05-10T01:54:55;10.80;87.00
21734;DHT22;11029;47.820;10.534;2023-05-10T01:57:26;10.70;86.90
21734;DHT22;11029;47.820;10.534;2023-05-10T01:59:54;10.70;87.00
21734;DHT22;11029;47.820;10.534;2023-05-10T02:02:22;10.70;87.60
21734;DHT22;11029;47.820;10.534;2023-05-10T02:04:50;10.70;87.80
21734;DHT22;11029;47.820;10.534;2023-05-10T02:07:18;10.70;88.00
21734;DHT22;11029;47.820;10.534;2023-05-10T02:09:46;10.60;88.60
21734;DHT22;11029;47.820;10.534;2023-05-10T02:12:15;10.50;87.20
21734;DHT22;11029;47.820;10.534;2023-05-10T02:14:43;10.60;87.20
21734;DHT22;11029;47.820;10.534;2023-05-10T02:17:11;10.60;87.00
21734;DHT22;11029;47.820;10.534;2023-05-10T02:19:40;10.50;87.70
21734;DHT22;11029;47.820;10.534;2023-05-10T02:22:09;10.50;88.30
21734;DHT22;11029;47.820;10.534;2023-05-10T02:24:37;10.50;88.20
21734;DHT22;11029;47.820;10.534;2023-05-10T02:27:05;10.50;88.90
21734;DHT22;11029;47.820;10.534;2023-05-10T02:29:33;10.40;88.80
21734;DHT22;11029;47.820;10.534;2023-05-10T02:32:00;10.40;89.00
21734;DHT22;11029;47.820;10.534;2023-05-10T02:34:29;10.50;89.10
21734;DHT22;11029;47.820;10.534;2023-05-10T02:36:58;10.40;89.10
21734;DHT22;11029;47.820;10.534;2023-05-10T02:39:27;10.50;89.00
21734;DHT22;11029;47.820;10.534;2023-05-10T02:41:56;10.50;88.90
21734;DHT22;11029;47.820;10.534;2023-05-10T02:44:26;10.50;88.80
21734;DHT22;11029;47.820;10.534;2023-05-10T02:46:53;10.40;88.80
21734;DHT22;11029;47.820;10.534;2023-05-10T02:49:22;10.50;88.90
21734;DHT22;11029;47.820;10.534;2023-05-10T02:51:52;10.40;88.70
21734;DHT22;11029;47.820;10.534;2023-05-10T02:54:28;10.40;89.00
21734;DHT22;11029;47.820;10.534;2023-05-10T02:57:00;10.40;89.30
21734;DHT22;11029;47.820;10.534;2023-05-10T02:59:30;10.40;89.40
21734;DHT22;11029;47.820;10.534;2023-05-10T03:01:59;10.40;89.60
21734;DHT22;11029;47.820;10.534;2023-05-10T03:04:26;10.30;89.80
21734;DHT22;11029;47.820;10.534;2023-05-10T03:06:55;10.40;89.40
21734;DHT22;11029;47.820;10.534;2023-05-10T03:09:22;10.30;89.20
21734;DHT22;11029;47.820;10.534;2023-05-10T03:12:07;10.30;88.70
21734;DHT22;11029;47.820;10.534;2023-05-10T03:14:53;10.30;88.30
21734;DHT22;11029;47.820;10.534;2023-05-10T03:17:40;10.30;88.50
21734;DHT22;11029;47.820;10.534;2023-05-10T03:20:20;10.30;88.00
21734;DHT22;11029;47.820;10.534;2023-05-10T03:22:51;10.30;88.20
21734;DHT22;11029;47.820;10.534;2023-05-10T03:25:21;10.40;88.20
21734;DHT22;11029;47.820;10.534;2023-05-10T03:27:52;10.40;87.90
21734;DHT22;11029;47.820;10.534;2023-05-10T03:30:19;10.30;88.30
21734;DHT22;11029;47.820;10.534;2023-05-10T03:32:46;10.30;88.00
21734;DHT22;11029;47.820;10.534;2023-05-10T03:35:15;10.30;88.00
21734;DHT22;11029;47.820;10.534;2023-05-10T03:37:43;10.30;87.20
21734;DHT22;11029;47.820;10.534;2023-05-10T03:40:10;10.20;87.50
21734;DHT22;11029;47.820;10.534;2023-05-10T03:42:39;10.30;87.90
21734;DHT22;11029;47.820;10.534;2023-05-10T03:45:07;10.20;87.50
21734;DHT22;11029;47.820;10.534;2023-05-10T03:47:34;10.20;88.10
21734;DHT22;11029;47.820;10.534;2023-05-10T03:50:01;10.10;88.20
21734;DHT22;11029;47.820;10.534;2023-05-10T03:52:28;10.20;88.00
21734;DHT22;11029;47.820;10.534;2023-05-10T03:54:55;10.20;88.00
21734;DHT22;11029;47.820;10.534;2023-05-10T03:57:23;10.10;87.70
21734;DHT22;11029;47.820;10.534;2023-05-10T03:59:50;10.20;88.20
21734;DHT22;11029;47.820;10.534;2023-05-10T04:02:16;10.10;88.40
21734;DHT22;11029;47.820;10.534;2023-05-10T04:04:43;10.10;88.60
21734;DHT22;11029;47.820;10.534;2023-05-10T04:07:10;10.10;88.70
21734;DHT22;11029;47.820;10.534;2023-05-10T04:09:37;10.10;88.80
21734;DHT22;11029;47.820;10.534;2023-05-10T04:12:04;10.10;88.80
21734;DHT22;11029;47.820;10.534;2023-05-10T04:14:31;10.10;88.90
21734;DHT22;11029;47.820;10.534;2023-05-10T04:16:57;10.10;88.70
21734;DHT22;11029;47.820;10.534;2023-05-10T04:19:29;10.10;88.60
21734;DHT22;11029;47.820;10.534;2023-05-10T04:21:55;10.10;88.40
21734;DHT22;11029;47.820;10.534;2023-05-10T04:24:22;10.10;88.30
21734;DHT22;11029;47.820;10.534;2023-05-10T04:26:49;10.10;88.20
21734;DHT22;11029;47.820;10.534;2023-05-10T04:29:16;10.10;88.40
21734;DHT22;11029;47.820;10.534;2023-05-10T04:31:42;10.00;88.20
21734;DHT22;11029;47.820;10.534;2023-05-10T04:34:09;10.10;88.20
21734;DHT22;11029;47.820;10.534;2023-05-10T04:36:36;10.10;88.10
21734;DHT22;11029;47.820;10.534;2023-05-10T04:39:03;10.10;87.70
21734;DHT22;11029;47.820;10.534;2023-05-10T04:41:30;10.10;87.80
21734;DHT22;11029;47.820;10.534;2023-05-10T04:43:57;10.10;87.80
21734;DHT22;11029;47.820;10.534;2023-05-10T04:46:24;10.10;87.60
21734;DHT22;11029;47.820;10.534;2023-05-10T04:48:51;10.10;87.70
21734;DHT22;11029;47.820;10.534;2023-05-10T04:51:17;10.10;87.80
21734;DHT22;11029;47.820;10.534;2023-05-10T04:53:44;10.00;87.80
21734;DHT22;11029;47.820;10.534;2023-05-10T04:56:27;10.10;87.50
21734;DHT22;11029;47.820;10.534;2023-05-10T04:58:54;10.00;87.50
21734;DHT22;11029;47.820;10.534;2023-05-10T05:01:21;10.00;87.50
21734;DHT22;11029;47.820;10.534;2023-05-10T05:03:47;10.00;87.80
21734;DHT22;11029;47.820;10.534;2023-05-10T05:06:14;10.00;87.80
21734;DHT22;11029;47.820;10.534;2023-05-10T05:08:41;10.00;87.50
21734;DHT22;11029;47.820;10.534;2023-05-10T05:11:08;10.00;88.00
21734;DHT22;11029;47.820;10.534;2023-05-10T05:13:34;10.00;88.40
21734;DHT22;11029;47.820;10.534;2023-05-10T05:16:02;10.10;88.00
21734;DHT22;11029;47.820;10.534;2023-05-10T05:18:29;10.10;88.00
21734;DHT22;11029;47.820;10.534;2023-05-10T05:20:56;10.10;87.70
21734;DHT22;11029;47.820;10.534;2023-05-10T05:23:22;10.10;87.60
21734;DHT22;11029;47.820;10.534;2023-05-10T05:25:52;10.10;87.20
21734;DHT22;11029;47.820;10.534;2023-05-10T05:28:19;10.20;86.80
21734;DHT22;11029;47.820;10.534;2023-05-10T05:30:46;10.20;86.70
21734;DHT22;11029;47.820;10.534;2023-05-10T05:33:14;10.30;86.60
21734;DHT22;11029;47.820;10.534;2023-05-10T05:35:41;10.30;86.40
21734;DHT22;11029;47.820;10.534;2023-05-10T05:38:11;10.30;86.60
21734;DHT22;11029;47.820;10.534;2023-05-10T05:40:37;10.30;86.40
21734;DHT22;11029;47.820;10.534;2023-05-10T05:43:04;10.30;86.30
21734;DHT22;11029;47.820;10.534;2023-05-10T05:45:31;10.40;86.50
21734;DHT22;11029;47.820;10.534;2023-05-10T05:47:58;10.30;86.50
21734;DHT22;11029;47.820;10.534;2023-05-10T05:50:24;10.40;86.80
21734;DHT22;11029;47.820;10.534;2023-05-10T05:52:51;10.40;86.40
21734;DHT22;11029;47.820;10.534;2023-05-10T05:55:18;10.40;86.70
21734;DHT22;11029;47.820;10.534;2023-05-10T05:57:45;10.40;86.10
21734;DHT22;11029;47.820;10.534;2023-05-10T06:00:12;10.50;86.50
21734;DHT22;11029;47.820;10.534;2023-05-10T06:02:39;10.50;85.60
21734;DHT22;11029;47.820;10.534;2023-05-10T06:05:06;10.50;85.80
21734;DHT22;11029;47.820;10.534;2023-05-10T06:07:34;10.50;85.90
21734;DHT22;11029;47.820;10.534;2023-05-10T06:10:01;10.50;86.20
21734;DHT22;11029;47.820;10.534;2023-05-10T06:12:27;10.60;85.80
21734;DHT22;11029;47.820;10.534;2023-05-10T06:14:54;10.50;85.50
21734;DHT22;11029;47.820;10.534;2023-05-10T06:17:21;10.60;86.00
21734;DHT22;11029;47.820;10.534;2023-05-10T06:19:48;10.60;86.20
21734;DHT22;11029;47.820;10.534;2023-05-10T06:22:15;10.60;86.30
21734;DHT22;11029;47.820;10.534;2023-05-10T06:24:41;10.60;86.40
21734;DHT22;11029;47.820;10.534;2023-05-10T06:27:08;10.60;86.40
21734;DHT22;11029;47.820;10.534;2023-05-10T06:29:35;10.60;86.20
21734;DHT22;11029;47.820;10.534;2023-05-10T06:32:02;10.60;86.50
21734;DHT22;11029;47.820;10.534;2023-05-10T06:34:29;10.70;86.70
21734;DHT22;11029;47.820;10.534;2023-05-10T06:36:55;10.70;85.60
21734;DHT22;11029;47.820;10.534;2023-05-10T06:39:22;10.70;85.80
21734;DHT22;11029;47.820;10.534;2023-05-10T06:41:49;10.70;85.40
21734;DHT22;11029;47.820;10.534;2023-05-10T06:44:17;10.70;86.00
21734;DHT22;11029;47.820;10.534;2023-05-10T06:46:44;10.60;86.40
21734;DHT22;11029;47.820;10.534;2023-05-10T06:49:11;10.50;86.90
21734;DHT22;11029;47.820;10.534;2023-05-10T06:51:37;10.40;86.60
21734;DHT22;11029;47.820;10.534;2023-05-10T06:54:04;10.40;86.10
21734;DHT22;11029;47.820;10.534;2023-05-10T06:56:31;10.50;86.50
21734;DHT22;11029;47.820;10.534;2023-05-10T06:58:57;10.50;86.50
21734;DHT22;11029;47.820;10.534;2023-05-10T07:01:24;10.70;87.10
21734;DHT22;11029;47.820;10.534;2023-05-10T07:03:51;10.70;86.50
21734;DHT22;11029;47.820;10.534;2023-05-10T07:06:18;10.70;84.90
21734;DHT22;11029;47.820;10.534;2023-05-10T07:08:58;10.80;85.80
21734;DHT22;11029;47.820;10.534;2023-05-10T07:11:25;10.90;85.70
21734;DHT22;11029;47.820;10.534;2023-05-10T07:13:53;11.00;85.10
21734;DHT22;11029;47.820;10.534;2023-05-10T07:16:19;11.00;85.00
21734;DHT22;11029;47.820;10.534;2023-05-10T07:18:47;11.00;84.50
21734;DHT22;11029;47.820;10.534;2023-05-10T07:21:14;11.00;84.60
21734;DHT22;11029;47.820;10.534;2023-05-10T07:23:41;11.00;84.60
21734;DHT22;11029;47.820;10.534;2023-05-10T07:26:10;11.00;85.30
21734;DHT22;11029;47.820;10.534;2023-05-10T07:28:38;11.00;85.10
21734;DHT22;11029;47.820;10.534;2023-05-10T07:31:05;11.00;84.70
21734;DHT22;11029;47.820;10.534;2023-05-10T07:33:32;11.10;83.50
21734;DHT22;11029;47.820;10.534;2023-05-10T07:35:59;11.10;83.80
21734;DHT22;11029;47.820;10.534;2023-05-10T07:38:26;11.10;83.90
21734;DHT22;11029;47.820;10.534;2023-05-10T07:40:53;11.10;82.90
21734;DHT22;11029;47.820;10.534;2023-05-10T07:43:19;11.10;82.90
21734;DHT22;11029;47.820;10.534;2023-05-10T07:45:46;11.20;84.00
21734;DHT22;11029;47.820;10.534;2023-05-10T07:48:13;11.30;84.80
21734;DHT22;11029;47.820;10.534;2023-05-10T07:50:40;11.40;84.20
21734;DHT22;11029;47.820;10.534;2023-05-10T07:53:06;11.40;82.10
21734;DHT22;11029;47.820;10.534;2023-05-10T07:55:34;11.30;82.90
21734;DHT22;11029;47.820;10.534;2023-05-10T07:58:01;11.30;83.20
21734;DHT22;11029;47.820;10.534;2023-05-10T08:00:27;11.30;83.40
21734;DHT22;11029;47.820;10.534;2023-05-10T08:02:54;11.30;82.10
21734;DHT22;11029;47.820;10.534;2023-05-10T08:05:21;11.30;82.60
21734;DHT22;11029;47.820;10.534;2023-05-10T08:07:48;11.40;82.40
21734;DHT22;11029;47.820;10.534;2023-05-10T08:10:15;11.30;81.60
21734;DHT22;11029;47.820;10.534;2023-05-10T08:12:41;11.30;81.60
21734;DHT22;11029;47.820;10.534;2023-05-10T08:15:09;11.50;81.70
21734;DHT22;11029;47.820;10.534;2023-05-10T08:17:36;11.60;80.50
21734;DHT22;11029;47.820;10.534;2023-05-10T08:20:03;11.70;80.90
21734;DHT22;11029;47.820;10.534;2023-05-10T08:22:29;11.80;82.00
21734;DHT22;11029;47.820;10.534;2023-05-10T08:24:56;11.80;80.00
21734;DHT22;11029;47.820;10.534;2023-05-10T08:27:23;11.80;79.30
21734;DHT22;11029;47.820;10.534;2023-05-10T08:29:50;11.80;79.40
21734;DHT22;11029;47.820;10.534;2023-05-10T08:32:17;11.80;81.70
21734;DHT22;11029;47.820;10.534;2023-05-10T08:34:44;11.80;80.60
21734;DHT22;11029;47.820;10.534;2023-05-10T08:37:10;11.70;80.70
21734;DHT22;11029;47.820;10.534;2023-05-10T08:39:39;11.70;80.80
21734;DHT22;11029;47.820;10.534;2023-05-10T08:42:07;11.70;81.40
21734;DHT22;11029;47.820;10.534;2023-05-10T08:44:36;11.60;80.70
21734;DHT22;11029;47.820;10.534;2023-05-10T08:47:05;11.70;80.50
21734;DHT22;11029;47.820;10.534;2023-05-10T08:49:33;11.70;81.60
21734;DHT22;11029;47.820;10.534;2023-05-10T08:52:03;11.80;80.70
21734;DHT22;11029;47.820;10.534;2023-05-10T08:54:33;11.80;80.70
21734;DHT22;11029;47.820;10.534;2023-05-10T08:57:00;11.70;81.00
21734;DHT22;11029;47.820;10.534;2023-05-10T08:59:27;11.80;78.30
21734;DHT22;11029;47.820;10.534;2023-05-10T09:01:57;11.60;79.60
21734;DHT22;11029;47.820;10.534;2023-05-10T09:04:24;11.60;80.70
21734;DHT22;11029;47.820;10.534;2023-05-10T09:06:51;11.60;79.60
21734;DHT22;11029;47.820;10.534;2023-05-10T09:09:18;11.50;79.60
21734;DHT22;11029;47.820;10.534;2023-05-10T09:11:45;11.40;80.40
21734;DHT22;11029;47.820;10.534;2023-05-10T09:14:13;11.30;80.60
21734;DHT22;11029;47.820;10.534;2023-05-10T09:16:41;11.10;81.30
21734;DHT22;11029;47.820;10.534;2023-05-10T09:19:08;11.10;81.20
21734;DHT22;11029;47.820;10.534;2023-05-10T09:21:35;11.10;82.30
21734;DHT22;11029;47.820;10.534;2023-05-10T09:24:06;11.20;82.30
21734;DHT22;11029;47.820;10.534;2023-05-10T09:26:34;11.10;81.90
21734;DHT22;11029;47.820;10.534;2023-05-10T09:29:04;11.10;82.00
21734;DHT22;11029;47.820;10.534;2023-05-10T09:31:50;11.10;81.60
21734;DHT22;11029;47.820;10.534;2023-05-10T09:34:30;11.20;81.60
21734;DHT22;11029;47.820;10.534;2023-05-10T09:37:02;11.40;81.30
21734;DHT22;11029;47.820;10.534;2023-05-10T09:39:31;11.30;80.20
21734;DHT22;11029;47.820;10.534;2023-05-10T09:41:59;11.30;80.60
21734;DHT22;11029;47.820;10.534;2023-05-10T09:44:27;11.20;79.30
21734;DHT22;11029;47.820;10.534;2023-05-10T09:46:54;11.30;79.60
21734;DHT22;11029;47.820;10.534;2023-05-10T09:49:22;11.20;79.80
21734;DHT22;11029;47.820;10.534;2023-05-10T09:52:08;11.20;80.20
21734;DHT22;11029;47.820;10.534;2023-05-10T09:54:34;11.30;79.60
21734;DHT22;11029;47.820;10.534;2023-05-10T09:57:02;11.40;78.80
21734;DHT22;11029;47.820;10.534;2023-05-10T09:59:29;11.60;79.20
21734;DHT22;11029;47.820;10.534;2023-05-10T10:01:58;11.50;78.30
21734;DHT22;11029;47.820;10.534;2023-05-10T10:04:26;11.70;77.90
21734;DHT22;11029;47.820;10.534;2023-05-10T10:07:00;11.70;77.70
21734;DHT22;11029;47.820;10.534;2023-05-10T10:09:27;11.60;77.40
21734;DHT22;11029;47.820;10.534;2023-05-10T10:11:54;11.70;77.20
21734;DHT22;11029;47.820;10.534;2023-05-10T10:14:23;11.70;78.90
21734;DHT22;11029;47.820;10.534;2023-05-10T10:16:50;11.90;78.60
21734;DHT22;11029;47.820;10.534;2023-05-10T10:19:34;12.00;76.70
21734;DHT22;11029;47.820;10.534;2023-05-10T10:22:02;11.90;77.60
21734;DHT22;11029;47.820;10.534;2023-05-10T10:24:29;11.90;77.00
21734;DHT22;11029;47.820;10.534;2023-05-10T10:30:50;11.70;76.90
21734;DHT22;11029;47.820;10.534;2023-05-10T10:35:43;11.60;76.40
21734;DHT22;11029;47.820;10.534;2023-05-10T10:38:13;11.70;78.50
21734;DHT22;11029;47.820;10.534;2023-05-10T10:40:40;11.90;77.70
21734;DHT22;11029;47.820;10.534;2023-05-10T10:43:23;11.90;75.10
21734;DHT22;11029;47.820;10.534;2023-05-10T10:48:36;11.60;75.60
21734;DHT22;11029;47.820;10.534;2023-05-10T10:51:03;11.60;74.80
21734;DHT22;11029;47.820;10.534;2023-05-10T10:53:30;11.60;76.20
21734;DHT22;11029;47.820;10.534;2023-05-10T10:56:23;11.70;76.40
21734;DHT22;11029;47.820;10.534;2023-05-10T10:58:51;11.70;77.40
21734;DHT22;11029;47.820;10.534;2023-05-10T11:01:19;11.80;77.70
21734;DHT22;11029;47.820;10.534;2023-05-10T11:06:33;11.80;76.70
21734;DHT22;11029;47.820;10.534;2023-05-10T11:09:07;11.70;76.40
21734;DHT22;11029;47.820;10.534;2023-05-10T11:11:35;11.70;77.60
21734;DHT22;11029;47.820;10.534;2023-05-10T11:14:03;11.60;78.90
21734;DHT22;11029;47.820;10.534;2023-05-10T11:16:41;11.60;79.00
21734;DHT22;11029;47.820;10.534;2023-05-10T11:19:11;11.50;79.70
21734;DHT22;11029;47.820;10.534;2023-05-10T11:21:49;11.60;80.40
21734;DHT22;11029;47.820;10.534;2023-05-10T11:24:23;11.70;80.10
21734;DHT22;11029;47.820;10.534;2023-05-10T11:26:53;11.60;79.20
21734;DHT22;11029;47.820;10.534;2023-05-10T11:29:20;11.60;79.30
21734;DHT22;11029;47.820;10.534;2023-05-10T11:31:48;11.70;78.10
21734;DHT22;11029;47.820;10.534;2023-05-10T11:34:26;11.70;79.00
21734;DHT22;11029;47.820;10.534;2023-05-10T11:36:55;11.80;79.40
21734;DHT22;11029;47.820;10.534;2023-05-10T11:39:30;11.90;77.20
21734;DHT22;11029;47.820;10.534;2023-05-10T11:41:57;11.80;76.10
21734;DHT22;11029;47.820;10.534;2023-05-10T11:44:29;11.70;77.10
21734;DHT22;11029;47.820;10.534;2023-05-10T11:47:02;11.70;76.70
21734;DHT22;11029;47.820;10.534;2023-05-10T11:49:29;11.70;76.20
21734;DHT22;11029;47.820;10.534;2023-05-10T11:52:06;11.70;75.10
21734;DHT22;11029;47.820;10.534;2023-05-10T11:54:33;11.70;76.20
21734;DHT22;11029;47.820;10.534;2023-05-10T11:57:03;11.80;76.70
21734;DHT22;11029;47.820;10.534;2023-05-10T11:59:30;11.80;75.50
21734;DHT22;11029;47.820;10.534;2023-05-10T12:01:57;11.70;77.00
21734;DHT22;11029;47.820;10.534;2023-05-10T12:04:24;11.80;75.30
21734;DHT22;11029;47.820;10.534;2023-05-10T12:06:52;11.60;74.40
21734;DHT22;11029;47.820;10.534;2023-05-10T12:09:19;11.50;75.00
21734;DHT22;11029;47.820;10.534;2023-05-10T12:12:05;11.50;75.30
21734;DHT22;11029;47.820;10.534;2023-05-10T12:14:34;11.50;76.00
21734;DHT22;11029;47.820;10.534;2023-05-10T12:17:02;11.40;74.70
21734;DHT22;11029;47.820;10.534;2023-05-10T12:19:37;11.50;76.30
21734;DHT22;11029;47.820;10.534;2023-05-10T12:22:05;11.50;75.70
21734;DHT22;11029;47.820;10.534;2023-05-10T12:24:37;11.50;75.60
21734;DHT22;11029;47.820;10.534;2023-05-10T12:27:05;11.50;74.80
21734;DHT22;11029;47.820;10.534;2023-05-10T12:29:34;11.40;75.90
21734;DHT22;11029;47.820;10.534;2023-05-10T12:32:01;11.40;75.60
21734;DHT22;11029;47.820;10.534;2023-05-10T12:34:33;11.30;77.40
21734;DHT22;11029;47.820;10.534;2023-05-10T12:37:02;11.00;75.60
21734;DHT22;11029;47.820;10.534;2023-05-10T12:39:43;10.60;75.80
21734;DHT22;11029;47.820;10.534;2023-05-10T12:42:11;10.20;77.20
21734;DHT22;11029;47.820;10.534;2023-05-10T12:44:38;9.90;78.60
21734;DHT22;11029;47.820;10.534;2023-05-10T12:47:05;9.80;79.90
21734;DHT22;11029;47.820;10.534;2023-05-10T12:49:32;9.70;81.10
21734;DHT22;11029;47.820;10.534;2023-05-10T12:51:59;9.50;82.60
21734;DHT22;11029;47.820;10.534;2023-05-10T12:54:25;9.50;83.20
21734;DHT22;11029;47.820;10.534;2023-05-10T12:56:52;9.50;83.40
21734;DHT22;11029;47.820;10.534;2023-05-10T12:59:19;9.50;83.90
21734;DHT22;11029;47.820;10.534;2023-05-10T13:01:46;9.60;84.00
21734;DHT22;11029;47.820;10.534;2023-05-10T13:04:12;9.70;84.10
21734;DHT22;11029;47.820;10.534;2023-05-10T13:06:39;9.70;83.60
21734;DHT22;11029;47.820;10.534;2023-05-10T13:09:06;9.70;83.30
21734;DHT22;11029;47.820;10.534;2023-05-10T13:11:33;9.60;82.00
21734;DHT22;11029;47.820;10.534;2023-05-10T13:14:00;9.70;83.20
21734;DHT22;11029;47.820;10.534;2023-05-10T13:16:26;9.60;82.60
21734;DHT22;11029;47.820;10.534;2023-05-10T13:18:53;9.60;82.80
21734;DHT22;11029;47.820;10.534;2023-05-10T13:21:20;9.50;83.70
21734;DHT22;11029;47.820;10.534;2023-05-10T13:23:47;9.60;83.20
21734;DHT22;11029;47.820;10.534;2023-05-10T13:26:13;9.70;83.70
21734;DHT22;11029;47.820;10.534;2023-05-10T13:28:40;9.70;83.00
21734;DHT22;11029;47.820;10.534;2023-05-10T13:31:07;9.80;82.20
21734;DHT22;11029;47.820;10.534;2023-05-10T13:33:34;9.80;81.40
21734;DHT22;11029;47.820;10.534;2023-05-10T13:36:01;9.70;81.80
21734;DHT22;11029;47.820;10.534;2023-05-10T13:38:28;9.70;81.70
21734;DHT22;11029;47.820;10.534;2023-05-10T13:40:54;9.90;84.00
21734;DHT22;11029;47.820;10.534;2023-05-10T13:43:21;9.80;81.60
21734;DHT22;11029;47.820;10.534;2023-05-10T13:45:48;9.80;82.30
21734;DHT22;11029;47.820;10.534;2023-05-10T13:48:15;9.80;82.30
21734;DHT22;11029;47.820;10.534;2023-05-10T13:50:42;9.80;82.20
21734;DHT22;11029;47.820;10.534;2023-05-10T13:53:09;9.80;81.80
21734;DHT22;11029;47.820;10.534;2023-05-10T13:55:35;9.70;80.30
21734;DHT22;11029;47.820;10.534;2023-05-10T13:58:02;9.70;81.50
21734;DHT22;11029;47.820;10.534;2023-05-10T14:00:29;9.70;80.50
21734;DHT22;11029;47.820;10.534;2023-05-10T14:02:56;9.70;81.90
21734;DHT22;11029;47.820;10.534;2023-05-10T14:05:23;9.70;79.80
21734;DHT22;11029;47.820;10.534;2023-05-10T14:07:52;9.80;82.10
21734;DHT22;11029;47.820;10.534;2023-05-10T14:10:18;9.70;80.50
21734;DHT22;11029;47.820;10.534;2023-05-10T14:12:45;9.70;80.00
21734;DHT22;11029;47.820;10.534;2023-05-10T14:15:12;9.80;81.10
21734;DHT22;11029;47.820;10.534;2023-05-10T14:17:38;9.90;81.20
21734;DHT22;11029;47.820;10.534;2023-05-10T14:20:06;9.80;81.40
21734;DHT22;11029;47.820;10.534;2023-05-10T14:22:33;9.80;82.50
21734;DHT22;11029;47.820;10.534;2023-05-10T14:25:00;9.80;82.20
21734;DHT22;11029;47.820;10.534;2023-05-10T14:27:26;10.00;82.10
21734;DHT22;11029;47.820;10.534;2023-05-10T14:29:53;9.90;82.60
21734;DHT22;11029;47.820;10.534;2023-05-10T14:32:20;9.90;82.70
21734;DHT22;11029;47.820;10.534;2023-05-10T14:34:47;9.90;82.10
21734;DHT22;11029;47.820;10.534;2023-05-10T14:37:14;10.00;82.70
21734;DHT22;11029;47.820;10.534;2023-05-10T14:39:41;10.00;81.40
21734;DHT22;11029;47.820;10.534;2023-05-10T14:42:09;10.10;82.30
21734;DHT22;11029;47.820;10.534;2023-05-10T14:44:35;10.20;81.30
21734;DHT22;11029;47.820;10.534;2023-05-10T14:47:02;10.10;81.60
21734;DHT22;11029;47.820;10.534;2023-05-10T14:49:29;10.00;81.80
21734;DHT22;11029;47.820;10.534;2023-05-10T14:51:56;9.90;83.00
21734;DHT22;11029;47.820;10.534;2023-05-10T14:54:23;9.90;81.40
21734;DHT22;11029;47.820;10.534;2023-05-10T14:56:49;9.70;82.00
21734;DHT22;11029;47.820;10.534;2023-05-10T14:59:16;9.70;82.40
21734;DHT22;11029;47.820;10.534;2023-05-10T15:01:44;9.70;82.00
21734;DHT22;11029;47.820;10.534;2023-05-10T15:04:11;9.70;82.70
21734;DHT22;11029;47.820;10.534;2023-05-10T15:06:39;9.70;82.70
21734;DHT22;11029;47.820;10.534;2023-05-10T15:09:06;9.80;83.30
21734;DHT22;11029;47.820;10.534;2023-05-10T15:11:33;9.90;82.30
21734;DHT22;11029;47.820;10.534;2023-05-10T15:14:00;10.10;82.30
21734;DHT22;11029;47.820;10.534;2023-05-10T15:16:28;10.10;81.90
21734;DHT22;11029;47.820;10.534;2023-05-10T15:18:55;10.10;81.90
21734;DHT22;11029;47.820;10.534;2023-05-10T15:21:21;10.10;81.00
21734;DHT22;11029;47.820;10.534;2023-05-10T15:23:48;10.10;81.40
21734;DHT22;11029;47.820;10.534;2023-05-10T15:26:15;10.10;82.40
21734;DHT22;11029;47.820;10.534;2023-05-10T15:28:42;10.20;79.50
21734;DHT22;11029;47.820;10.534;2023-05-10T15:31:09;10.00;80.80
21734;DHT22;11029;47.820;10.534;2023-05-10T15:33:37;10.00;81.40
21734;DHT22;11029;47.820;10.534;2023-05-10T15:36:05;9.80;81.10
21734;DHT22;11029;47.820;10.534;2023-05-10T15:38:33;9.70;81.50
21734;DHT22;11029;47.820;10.534;2023-05-10T15:40:59;9.70;82.20
21734;DHT22;11029;47.820;10.534;2023-05-10T15:43:26;9.80;82.40
21734;DHT22;11029;47.820;10.534;2023-05-10T15:45:53;9.90;81.70
21734;DHT22;11029;47.820;10.534;2023-05-10T15:48:20;9.90;82.40